createdAt,value
2022-11-16T00:00:59.090Z,77
2022-11-16T00:02:02.017Z,82
2022-11-16T00:03:04.207Z,85
2022-11-16T00:04:06.870Z,90
2022-11-16T00:05:09.273Z,94
2022-11-16T00:06:11.148Z,93
2022-11-16T00:08:20.146Z,99
2022-11-16T00:09:22.147Z,96
2022-11-16T00:10:24.146Z,96
2022-11-16T00:11:26.665Z,101
2022-11-16T00:12:29.966Z,100
2022-11-16T00:13:32.146Z,99
2022-11-16T00:14:34.170Z,94
2022-11-16T00:15:36.161Z,96
2022-11-16T00:16:38.209Z,95
2022-11-16T00:17:40.174Z,93
2022-11-16T00:18:42.208Z,90
2022-11-16T00:19:44.029Z,88
2022-11-16T00:20:46.466Z,91
2022-11-16T00:21:48.167Z,86
2022-11-16T00:22:50.746Z,88
2022-11-16T00:23:53.186Z,86
2022-11-16T00:24:55.734Z,88
2022-11-16T00:25:57.055Z,86
2022-11-16T00:26:59.271Z,81
2022-11-16T00:28:01.068Z,81
2022-11-16T00:29:03.186Z,78
2022-11-16T00:30:05.269Z,77
2022-11-16T00:31:07.909Z,75
2022-11-16T00:32:10.125Z,77
2022-11-16T00:33:12.039Z,78
2022-11-16T00:34:14.070Z,80
2022-11-16T00:35:16.106Z,82
2022-11-16T00:36:18.146Z,81
2022-11-16T00:37:20.145Z,82
2022-11-16T00:38:22.146Z,85
2022-11-16T00:39:24.135Z,83
2022-11-16T00:40:26.126Z,82
2022-11-16T00:41:28.188Z,82
2022-11-16T00:42:30.008Z,82
2022-11-16T00:43:32.126Z,82
2022-11-16T00:44:34.206Z,85
2022-11-16T00:45:36.187Z,85
2022-11-16T00:46:38.207Z,86
2022-11-16T00:47:40.159Z,86
2022-11-16T00:48:42.276Z,86
2022-11-16T00:49:44.095Z,88
2022-11-16T00:50:46.189Z,88
2022-11-16T00:51:48.462Z,89
2022-11-16T00:52:50.113Z,89
2022-11-16T00:53:52.166Z,90
2022-11-16T00:54:54.179Z,90
2022-11-16T00:55:56.166Z,91
2022-11-16T00:56:58.262Z,93
2022-11-16T00:58:00.093Z,93
2022-11-16T00:59:02.189Z,92
2022-11-16T01:00:04.191Z,92
2022-11-16T01:01:06.268Z,90
2022-11-16T01:02:08.307Z,91
2022-11-16T01:03:10.006Z,90
2022-11-16T01:04:12.027Z,92
2022-11-16T01:05:14.106Z,90
2022-11-16T01:06:16.207Z,90
2022-11-16T01:07:18.417Z,90
2022-11-16T01:08:20.148Z,89
2022-11-16T01:09:22.187Z,90
2022-11-16T01:10:24.326Z,93
2022-11-16T01:11:26.843Z,91
2022-11-16T01:12:29.207Z,92
2022-11-16T01:13:31.045Z,94
2022-11-16T01:14:33.168Z,94
2022-11-16T01:15:35.167Z,94
2022-11-16T01:16:38.066Z,95
2022-11-16T01:17:40.266Z,96
2022-11-16T01:18:42.225Z,96
2022-11-16T01:19:44.347Z,97
2022-11-16T01:20:46.747Z,96
2022-11-16T01:21:49.197Z,94
2022-11-16T01:22:51.213Z,95
2022-11-16T01:23:53.110Z,94
2022-11-16T01:24:55.265Z,94
2022-11-16T01:25:57.908Z,93
2022-11-16T01:27:00.079Z,91
2022-11-16T01:28:02.087Z,91
2022-11-16T01:29:04.226Z,90
2022-11-16T01:30:06.207Z,91
2022-11-16T01:31:08.647Z,91
2022-11-16T01:32:11.136Z,92
2022-11-16T01:33:13.256Z,93
2022-11-16T01:34:15.127Z,93
2022-11-16T01:35:17.109Z,94
2022-11-16T01:36:19.751Z,91
2022-11-16T01:37:22.130Z,94
2022-11-16T01:38:28.539Z,95
2022-11-16T01:39:26.628Z,93
2022-11-16T01:40:28.746Z,91
2022-11-16T01:41:30.048Z,92
2022-11-16T01:42:32.147Z,93
2022-11-16T01:43:34.890Z,94
2022-11-16T01:44:37.265Z,96
2022-11-16T01:45:39.847Z,96
2022-11-16T01:46:41.067Z,96
2022-11-16T01:47:43.068Z,97
2022-11-16T01:48:45.103Z,96
2022-11-16T01:49:47.047Z,94
2022-11-16T01:50:49.625Z,95
2022-11-16T01:51:52.226Z,95
2022-11-16T01:52:54.157Z,92
2022-11-16T01:53:56.052Z,92
2022-11-16T01:54:58.114Z,91
2022-11-16T01:56:00.467Z,89
2022-11-16T01:57:02.152Z,90
2022-11-16T01:58:04.223Z,89
2022-11-16T01:59:07.268Z,89
2022-11-16T02:00:09.245Z,88
2022-11-16T02:01:11.436Z,88
2022-11-16T02:02:14.188Z,88
2022-11-16T02:03:17.091Z,86
2022-11-16T02:07:20.187Z,83
2022-11-16T02:08:22.015Z,85
2022-11-16T02:09:24.041Z,85
2022-11-16T02:10:26.097Z,86
2022-11-16T02:11:28.032Z,84
2022-11-16T02:12:29.986Z,83
2022-11-16T02:13:31.921Z,83
2022-11-16T02:14:34.035Z,86
2022-11-16T02:15:36.055Z,86
2022-11-16T02:16:38.376Z,86
2022-11-16T02:17:39.918Z,86
2022-11-16T02:18:40.959Z,86
2022-11-16T02:19:42.916Z,86
2022-11-16T02:20:43.971Z,88
2022-11-16T02:21:45.342Z,89
2022-11-16T02:22:46.947Z,90
2022-11-16T02:23:47.936Z,89
2022-11-16T02:24:48.901Z,89
2022-11-16T02:25:49.916Z,89
2022-11-16T02:26:50.976Z,88
2022-11-16T02:27:51.997Z,86
2022-11-16T02:28:54.036Z,86
2022-11-16T02:29:56.015Z,84
2022-11-16T02:30:58.054Z,85
2022-11-16T02:32:00.078Z,86
2022-11-16T02:33:02.082Z,88
2022-11-16T02:34:04.095Z,85
2022-11-16T02:35:06.035Z,88
2022-11-16T02:36:08.032Z,86
2022-11-16T02:37:10.023Z,86
2022-11-16T02:38:12.058Z,88
2022-11-16T02:39:14.095Z,86
2022-11-16T02:40:16.307Z,86
2022-11-16T02:41:17.995Z,85
2022-11-16T02:42:20.043Z,85
2022-11-16T02:43:22.015Z,85
2022-11-16T02:44:23.995Z,85
2022-11-16T02:45:26.276Z,85
2022-11-16T02:46:28.254Z,85
2022-11-16T02:47:30.255Z,85
2022-11-16T02:48:32.848Z,86
2022-11-16T02:49:34.023Z,88
2022-11-16T02:50:36.300Z,89
2022-11-16T02:51:38.355Z,91
2022-11-16T02:52:39.962Z,92
2022-11-16T02:53:40.963Z,92
2022-11-16T02:54:42.014Z,93
2022-11-16T02:55:44.019Z,92
2022-11-16T02:56:44.903Z,91
2022-11-16T02:57:46.325Z,91
2022-11-16T02:58:48.034Z,90
2022-11-16T02:59:50.022Z,90
2022-11-16T03:00:52.143Z,91
2022-11-16T03:01:54.095Z,91
2022-11-16T03:02:55.934Z,90
2022-11-16T03:03:56.991Z,90
2022-11-16T03:04:58.308Z,89
2022-11-16T03:05:59.965Z,89
2022-11-16T03:07:01.409Z,88
2022-11-16T03:08:03.195Z,88
2022-11-16T03:09:05.115Z,88
2022-11-16T03:10:07.718Z,86
2022-11-16T03:11:09.018Z,86
2022-11-16T03:12:11.030Z,86
2022-11-16T03:13:13.223Z,86
2022-11-16T03:14:15.159Z,85
2022-11-16T03:15:16.952Z,86
2022-11-16T03:16:17.954Z,85
2022-11-16T03:17:20.233Z,86
2022-11-16T03:18:22.034Z,89
2022-11-16T03:19:23.879Z,88
2022-11-16T03:20:24.935Z,90
2022-11-16T03:21:25.891Z,89
2022-11-16T03:22:27.001Z,89
2022-11-16T03:23:28.996Z,86
2022-11-16T03:24:31.055Z,86
2022-11-16T03:25:33.076Z,86
2022-11-16T03:26:35.039Z,86
2022-11-16T03:27:36.995Z,82
2022-11-16T03:28:39.515Z,82
2022-11-16T03:29:41.314Z,85
2022-11-16T03:30:43.216Z,84
2022-11-16T03:31:45.326Z,84
2022-11-16T03:32:52.037Z,84
2022-11-16T03:33:54.078Z,83
2022-11-16T03:34:55.995Z,82
2022-11-16T03:35:58.203Z,81
2022-11-16T03:36:59.955Z,81
2022-11-16T03:38:01.170Z,81
2022-11-16T03:39:03.113Z,80
2022-11-16T03:40:05.116Z,80
2022-11-16T03:41:07.635Z,81
2022-11-16T03:42:09.127Z,83
2022-11-16T03:43:11.065Z,83
2022-11-16T03:44:13.056Z,86
2022-11-16T03:45:14.995Z,86
2022-11-16T03:46:15.986Z,86
2022-11-16T03:47:16.964Z,86
2022-11-16T03:48:18.016Z,88
2022-11-16T03:49:19.005Z,90
2022-11-16T03:50:21.076Z,89
2022-11-16T03:51:23.075Z,89
2022-11-16T03:52:25.095Z,89
2022-11-16T03:53:26.975Z,88
2022-11-16T03:54:30.003Z,89
2022-11-16T03:55:31.118Z,89
2022-11-16T03:56:33.114Z,88
2022-11-16T03:57:35.078Z,85
2022-11-16T03:58:37.495Z,85
2022-11-16T03:59:39.043Z,82
2022-11-16T04:00:41.200Z,79
2022-11-16T04:01:44.970Z,79
2022-11-16T04:02:44.994Z,77
2022-11-16T04:03:47.044Z,77
2022-11-16T04:04:49.035Z,75
2022-11-16T04:05:50.992Z,74
2022-11-16T04:06:53.178Z,75
2022-11-16T04:07:55.076Z,75
2022-11-16T04:08:57.113Z,74
2022-11-16T04:09:58.974Z,72
2022-11-16T04:10:59.963Z,71
2022-11-16T04:12:01.382Z,71
2022-11-16T04:13:03.080Z,71
2022-11-16T04:14:08.872Z,69
2022-11-16T04:15:07.094Z,67
2022-11-16T04:16:09.225Z,66
2022-11-16T04:17:11.534Z,64
2022-11-16T04:18:12.995Z,64
2022-11-16T04:19:14.036Z,64
2022-11-16T04:20:15.076Z,63
2022-11-16T04:21:17.616Z,64
2022-11-16T04:22:19.062Z,63
2022-11-16T04:23:21.116Z,62
2022-11-16T04:24:23.094Z,59
2022-11-16T04:25:25.543Z,59
2022-11-16T04:26:27.554Z,59
2022-11-16T04:27:29.045Z,60
2022-11-16T04:28:31.353Z,60
2022-11-16T04:29:33.154Z,60
2022-11-16T04:30:35.931Z,59
2022-11-16T04:31:37.079Z,59
2022-11-16T04:32:38.978Z,58
2022-11-16T04:33:39.961Z,60
2022-11-16T04:34:41.096Z,58
2022-11-16T04:35:43.022Z,60
2022-11-16T04:36:45.123Z,58
2022-11-16T04:37:47.364Z,57
2022-11-16T04:38:49.275Z,57
2022-11-16T04:39:51.095Z,58
2022-11-16T04:40:53.121Z,57
2022-11-16T04:41:55.055Z,57
2022-11-16T04:42:57.215Z,56
2022-11-16T04:43:59.441Z,55
2022-11-16T04:45:00.993Z,56
2022-11-16T04:46:02.059Z,55
2022-11-16T04:47:04.094Z,53
2022-11-16T04:48:06.200Z,53
2022-11-16T04:49:08.075Z,53
2022-11-16T04:50:10.277Z,56
2022-11-16T04:51:11.974Z,55
2022-11-16T04:52:12.954Z,56
2022-11-16T04:53:14.016Z,56
2022-11-16T04:54:14.998Z,55
2022-11-16T04:55:16.082Z,53
2022-11-16T04:56:18.162Z,55
2022-11-16T04:57:20.124Z,53
2022-11-16T04:58:22.165Z,53
2022-11-16T04:59:24.260Z,53
2022-11-16T05:00:26.116Z,53
2022-11-16T05:01:28.146Z,55
2022-11-16T05:02:29.995Z,55
2022-11-16T05:03:31.055Z,52
2022-11-16T05:04:32.037Z,53
2022-11-16T05:05:33.135Z,53
2022-11-16T05:06:35.064Z,53
2022-11-16T05:07:37.076Z,53
2022-11-16T05:08:39.095Z,55
2022-11-16T05:09:41.115Z,55
2022-11-16T05:10:43.049Z,56
2022-11-16T05:11:44.056Z,56
2022-11-16T05:12:45.016Z,57
2022-11-16T05:13:46.635Z,57
2022-11-16T05:14:48.322Z,57
2022-11-16T05:15:51.076Z,57
2022-11-16T05:16:53.044Z,57
2022-11-16T05:17:55.333Z,58
2022-11-16T05:18:57.932Z,58
2022-11-16T05:19:59.596Z,58
2022-11-16T05:21:01.074Z,60
2022-11-16T05:22:03.063Z,59
2022-11-16T05:23:05.056Z,59
2022-11-16T05:24:07.698Z,59
2022-11-16T05:25:09.076Z,59
2022-11-16T05:26:11.055Z,62
2022-11-16T05:27:13.036Z,61
2022-11-16T05:28:14.022Z,62
2022-11-16T05:29:15.136Z,62
2022-11-16T05:30:17.666Z,62
2022-11-16T05:31:19.057Z,62
2022-11-16T05:32:21.157Z,61
2022-11-16T05:33:22.977Z,62
2022-11-16T05:34:23.998Z,62
2022-11-16T05:35:24.997Z,62
2022-11-16T05:36:26.024Z,61
2022-11-16T05:37:27.042Z,61
2022-11-16T05:38:28.104Z,61
2022-11-16T05:39:29.975Z,61
2022-11-16T05:40:31.011Z,61
2022-11-16T05:41:32.995Z,61
2022-11-16T05:42:34.952Z,61
2022-11-16T05:43:35.976Z,61
2022-11-16T05:44:37.056Z,62
2022-11-16T05:45:37.992Z,63
2022-11-16T05:46:39.058Z,63
2022-11-16T05:47:41.077Z,63
2022-11-16T05:48:43.976Z,62
2022-11-16T05:49:45.397Z,62
2022-11-16T05:50:47.037Z,63
2022-11-16T05:51:49.059Z,63
2022-11-16T05:52:51.076Z,63
2022-11-16T05:53:53.337Z,63
2022-11-16T05:54:55.344Z,63
2022-11-16T05:55:57.173Z,64
2022-11-16T05:56:59.302Z,64
2022-11-16T05:58:01.299Z,67
2022-11-16T05:59:03.011Z,66
2022-11-16T06:00:04.238Z,64
2022-11-16T06:01:06.161Z,64
2022-11-16T06:02:08.244Z,67
2022-11-16T06:03:10.130Z,67
2022-11-16T06:04:12.117Z,66
2022-11-16T06:05:14.109Z,66
2022-11-16T06:06:15.974Z,67
2022-11-16T06:07:17.077Z,67
2022-11-16T06:08:17.980Z,66
2022-11-16T06:09:18.991Z,66
2022-11-16T06:10:20.085Z,67
2022-11-16T06:11:21.038Z,66
2022-11-16T06:12:21.996Z,67
2022-11-16T06:13:23.220Z,66
2022-11-16T06:14:26.097Z,66
2022-11-16T06:15:28.137Z,66
2022-11-16T06:16:30.380Z,68
2022-11-16T06:17:32.045Z,66
2022-11-16T06:18:33.262Z,67
2022-11-16T06:19:34.014Z,67
2022-11-16T06:20:35.042Z,68
2022-11-16T06:21:38.136Z,68
2022-11-16T06:22:41.099Z,67
2022-11-16T06:23:43.160Z,66
2022-11-16T06:24:45.037Z,67
2022-11-16T06:25:46.009Z,68
2022-11-16T06:26:47.614Z,68
2022-11-16T06:27:49.153Z,66
2022-11-16T06:28:51.040Z,67
2022-11-16T06:29:52.944Z,66
2022-11-16T06:30:54.327Z,64
2022-11-16T06:31:56.269Z,64
2022-11-16T06:32:58.124Z,64
2022-11-16T06:34:00.090Z,67
2022-11-16T06:35:02.040Z,68
2022-11-16T06:36:03.234Z,67
2022-11-16T06:37:05.100Z,67
2022-11-16T06:38:07.357Z,67
2022-11-16T06:39:09.094Z,66
2022-11-16T06:40:11.116Z,66
2022-11-16T06:41:13.140Z,64
2022-11-16T06:42:15.222Z,66
2022-11-16T06:43:17.484Z,67
2022-11-16T06:44:19.385Z,64
2022-11-16T06:45:21.079Z,64
2022-11-16T06:46:21.997Z,64
2022-11-16T06:47:23.634Z,64
2022-11-16T06:48:25.158Z,64
2022-11-16T06:49:27.106Z,64
2022-11-16T06:50:29.387Z,64
2022-11-16T06:51:31.128Z,63
2022-11-16T06:52:33.378Z,64
2022-11-16T06:53:35.136Z,66
2022-11-16T06:54:37.120Z,66
2022-11-16T06:55:39.118Z,64
2022-11-16T06:56:41.118Z,64
2022-11-16T06:57:43.146Z,64
2022-11-16T06:58:45.277Z,64
2022-11-16T06:59:47.137Z,64
2022-11-16T07:00:49.118Z,64
2022-11-16T07:01:51.252Z,67
2022-11-16T07:02:53.159Z,66
2022-11-16T07:03:55.097Z,64
2022-11-16T07:04:59.312Z,64
2022-11-16T07:05:57.279Z,64
2022-11-16T07:06:59.405Z,63
2022-11-16T07:08:01.274Z,63
2022-11-16T07:09:03.789Z,63
2022-11-16T07:10:05.793Z,62
2022-11-16T07:11:07.062Z,62
2022-11-16T07:12:09.176Z,62
2022-11-16T07:13:11.162Z,64
2022-11-16T07:14:13.117Z,64
2022-11-16T07:15:16.336Z,63
2022-11-16T07:16:18.269Z,62
2022-11-16T07:17:20.036Z,63
2022-11-16T07:18:21.160Z,67
2022-11-16T07:19:23.156Z,66
2022-11-16T07:20:25.466Z,66
2022-11-16T07:21:27.197Z,66
2022-11-16T07:22:29.117Z,68
2022-11-16T07:23:31.197Z,69
2022-11-16T07:24:33.117Z,68
2022-11-16T07:25:35.176Z,70
2022-11-16T07:26:37.484Z,68
2022-11-16T07:27:39.005Z,69
2022-11-16T07:28:44.986Z,68
2022-11-16T07:29:43.003Z,69
2022-11-16T07:30:44.719Z,70
2022-11-16T07:31:46.077Z,68
2022-11-16T07:32:48.136Z,66
2022-11-16T07:33:50.266Z,64
2022-11-16T07:34:52.484Z,64
2022-11-16T07:35:54.258Z,63
2022-11-16T07:36:56.088Z,64
2022-11-16T07:37:58.057Z,64
2022-11-16T07:38:59.083Z,64
2022-11-16T07:40:00.049Z,63
2022-11-16T07:41:01.518Z,64
2022-11-16T07:42:03.397Z,64
2022-11-16T07:43:05.197Z,66
2022-11-16T07:44:11.871Z,66
2022-11-16T07:45:09.186Z,67
2022-11-16T07:47:13.154Z,66
2022-11-16T07:48:15.136Z,66
2022-11-16T07:49:17.615Z,66
2022-11-16T07:50:19.161Z,64
2022-11-16T07:51:21.242Z,66
2022-11-16T07:52:23.134Z,66
2022-11-16T07:53:25.256Z,64
2022-11-16T07:54:27.177Z,64
2022-11-16T07:55:29.219Z,67
2022-11-16T07:56:31.636Z,64
2022-11-16T07:57:33.139Z,64
2022-11-16T07:58:36.621Z,67
2022-11-16T07:59:38.153Z,67
2022-11-16T08:00:40.206Z,67
2022-11-16T08:01:42.289Z,67
2022-11-16T08:02:44.228Z,67
2022-11-16T08:03:46.539Z,68
2022-11-16T08:04:48.264Z,69
2022-11-16T08:05:50.236Z,68
2022-11-16T08:06:52.204Z,68
2022-11-16T08:07:54.225Z,67
2022-11-16T08:08:58.503Z,69
2022-11-16T08:09:58.265Z,68
2022-11-16T08:11:00.137Z,69
2022-11-16T08:12:01.093Z,69
2022-11-16T08:13:03.317Z,68
2022-11-16T08:14:05.244Z,69
2022-11-16T08:15:07.396Z,69
2022-11-16T08:16:09.071Z,68
2022-11-16T08:17:10.219Z,68
2022-11-16T08:18:12.549Z,66
2022-11-16T08:19:14.277Z,67
2022-11-16T08:20:16.669Z,69
2022-11-16T08:21:18.179Z,67
2022-11-16T08:22:20.336Z,68
2022-11-16T08:23:22.238Z,66
2022-11-16T08:24:24.538Z,66
2022-11-16T08:25:26.113Z,66
2022-11-16T08:26:27.128Z,67
2022-11-16T08:27:29.144Z,66
2022-11-16T08:28:31.574Z,66
2022-11-16T08:29:33.957Z,68
2022-11-16T08:30:35.177Z,67
2022-11-16T08:31:37.984Z,66
2022-11-16T08:32:39.096Z,67
2022-11-16T08:33:40.225Z,66
2022-11-16T08:34:42.316Z,64
2022-11-16T08:35:44.392Z,67
2022-11-16T08:36:46.812Z,66
2022-11-16T08:37:48.101Z,64
2022-11-16T08:38:49.313Z,63
2022-11-16T08:39:51.126Z,63
2022-11-16T08:40:53.163Z,63
2022-11-16T08:41:55.237Z,64
2022-11-16T08:42:57.407Z,63
2022-11-16T08:43:59.244Z,63
2022-11-16T08:45:01.055Z,63
2022-11-16T08:46:02.117Z,62
2022-11-16T08:47:04.233Z,61
2022-11-16T08:48:06.288Z,59
2022-11-16T08:49:08.474Z,58
2022-11-16T08:50:10.129Z,59
2022-11-16T08:51:20.468Z,58
2022-11-16T08:52:14.555Z,59
2022-11-16T08:53:16.972Z,58
2022-11-16T08:54:18.185Z,59
2022-11-16T08:55:19.103Z,58
2022-11-16T08:56:21.145Z,59
2022-11-16T08:57:23.182Z,59
2022-11-16T08:58:25.297Z,59
2022-11-16T08:59:27.377Z,59
2022-11-16T09:00:29.549Z,59
2022-11-16T09:01:32.519Z,58
2022-11-16T09:02:34.445Z,57
2022-11-16T09:03:36.335Z,56
2022-11-16T09:04:38.178Z,57
2022-11-16T09:05:40.277Z,56
2022-11-16T09:06:43.273Z,57
2022-11-16T09:07:45.356Z,55
2022-11-16T09:08:47.284Z,55
2022-11-16T09:09:49.136Z,55
2022-11-16T09:10:51.316Z,55
2022-11-16T09:11:53.624Z,53
2022-11-16T09:12:55.630Z,55
2022-11-16T09:13:58.477Z,53
2022-11-16T09:15:00.577Z,53
2022-11-16T09:16:02.219Z,55
2022-11-16T09:17:04.265Z,55
2022-11-16T09:18:06.276Z,52
2022-11-16T09:19:08.274Z,53
2022-11-16T09:20:10.756Z,53
2022-11-16T09:21:12.256Z,53
2022-11-16T09:22:14.578Z,53
2022-11-16T09:23:18.717Z,52
2022-11-16T09:24:17.212Z,52
2022-11-16T09:25:19.211Z,51
2022-11-16T09:26:22.099Z,53
2022-11-16T09:27:23.990Z,52
2022-11-16T09:28:25.217Z,51
2022-11-16T09:29:27.244Z,52
2022-11-16T09:30:29.856Z,52
2022-11-16T09:31:31.497Z,52
2022-11-16T09:32:33.476Z,52
2022-11-16T09:33:35.473Z,51
2022-11-16T09:34:37.239Z,52
2022-11-16T09:35:40.154Z,50
2022-11-16T09:36:42.237Z,50
2022-11-16T09:37:44.315Z,51
2022-11-16T09:39:14.283Z,51
2022-11-16T09:39:48.237Z,50
2022-11-16T09:40:50.296Z,50
2022-11-16T09:41:52.257Z,50
2022-11-16T09:42:54.195Z,50
2022-11-16T09:43:56.275Z,51
2022-11-16T09:44:58.236Z,51
2022-11-16T09:46:00.458Z,51
2022-11-16T09:47:02.264Z,50
2022-11-16T09:48:04.218Z,51
2022-11-16T09:49:16.824Z,53
2022-11-16T09:50:09.277Z,51
2022-11-16T09:51:11.552Z,51
2022-11-16T09:52:13.256Z,52
2022-11-16T09:53:15.357Z,-1
2022-11-16T09:54:17.615Z,51
2022-11-16T09:55:19.221Z,50
2022-11-16T09:56:22.942Z,48
2022-11-16T09:57:24.195Z,48
2022-11-16T09:58:26.196Z,48
2022-11-16T09:59:28.516Z,48
2022-11-16T10:00:31.005Z,48
2022-11-16T10:01:32.204Z,48
2022-11-16T10:02:34.242Z,48
2022-11-16T10:03:36.653Z,49
2022-11-16T10:04:38.365Z,49
2022-11-16T10:05:40.296Z,50
2022-11-16T10:06:42.455Z,47
2022-11-16T10:07:44.255Z,47
2022-11-16T10:08:46.354Z,48
2022-11-16T10:09:48.918Z,48
2022-11-16T10:10:50.557Z,49
2022-11-16T10:11:52.297Z,48
2022-11-16T10:12:54.189Z,49
2022-11-16T10:13:56.986Z,49
2022-11-16T10:14:57.319Z,48
2022-11-16T10:15:59.157Z,49
2022-11-16T10:17:01.177Z,48
2022-11-16T10:18:02.206Z,51
2022-11-16T10:19:03.236Z,51
2022-11-16T10:20:04.197Z,51
2022-11-16T10:21:05.109Z,53
2022-11-16T10:22:06.179Z,51
2022-11-16T10:23:08.313Z,52
2022-11-16T10:24:10.502Z,53
2022-11-16T10:25:12.245Z,53
2022-11-16T10:26:14.129Z,53
2022-11-16T10:27:19.199Z,53
2022-11-16T10:28:16.713Z,52
2022-11-16T10:29:18.199Z,51
2022-11-16T10:30:19.229Z,50
2022-11-16T10:31:20.217Z,50
2022-11-16T10:32:22.229Z,49
2022-11-16T10:33:24.191Z,47
2022-11-16T10:34:26.198Z,47
2022-11-16T10:35:28.276Z,47
2022-11-16T10:36:31.517Z,47
2022-11-16T10:37:33.781Z,47
2022-11-16T10:38:35.576Z,47
2022-11-16T10:39:37.309Z,47
2022-11-16T10:40:39.496Z,48
2022-11-16T10:41:41.322Z,49
2022-11-16T10:42:43.208Z,47
2022-11-16T10:43:45.262Z,47
2022-11-16T10:44:47.581Z,47
2022-11-16T10:45:49.364Z,47
2022-11-16T10:46:51.256Z,46
2022-11-16T10:47:53.559Z,46
2022-11-16T10:48:55.444Z,47
2022-11-16T10:49:57.302Z,47
2022-11-16T10:50:59.246Z,46
2022-11-16T10:52:01.200Z,45
2022-11-16T10:53:02.198Z,45
2022-11-16T10:54:04.377Z,45
2022-11-16T10:55:06.304Z,45
2022-11-16T10:56:08.646Z,45
2022-11-16T10:57:10.977Z,45
2022-11-16T10:58:12.695Z,45
2022-11-16T10:59:14.297Z,45
2022-11-16T11:00:21.097Z,44
2022-11-16T11:01:18.405Z,44
2022-11-16T11:02:20.214Z,45
2022-11-16T11:03:22.916Z,45
2022-11-16T11:04:24.329Z,44
2022-11-16T11:05:26.336Z,45
2022-11-16T11:06:28.339Z,44
2022-11-16T11:07:30.543Z,44
2022-11-16T11:08:32.187Z,42
2022-11-16T11:09:34.537Z,42
2022-11-16T11:10:37.241Z,45
2022-11-16T11:11:39.436Z,44
2022-11-16T11:12:41.637Z,44
2022-11-16T11:13:43.796Z,44
2022-11-16T11:14:45.335Z,45
2022-11-16T11:15:47.210Z,45
2022-11-16T11:16:49.218Z,46
2022-11-16T11:17:51.241Z,46
2022-11-16T11:18:54.276Z,46
2022-11-16T11:19:56.224Z,45
2022-11-16T11:20:57.719Z,45
2022-11-16T11:21:59.216Z,46
2022-11-16T11:23:01.166Z,44
2022-11-16T11:24:16.319Z,44
2022-11-16T11:25:04.374Z,42
2022-11-16T11:26:07.454Z,41
2022-11-16T11:27:09.185Z,41
2022-11-16T11:28:11.305Z,41
2022-11-16T11:29:13.337Z,41
2022-11-16T11:30:15.337Z,44
2022-11-16T11:31:17.336Z,42
2022-11-16T11:32:24.054Z,42
2022-11-16T11:33:22.157Z,41
2022-11-16T11:34:23.219Z,41
2022-11-16T11:35:24.177Z,41
2022-11-16T11:36:26.091Z,41
2022-11-16T11:37:28.131Z,42
2022-11-16T11:38:30.201Z,42
2022-11-16T11:39:31.377Z,41
2022-11-16T11:40:32.268Z,41
2022-11-16T11:41:33.241Z,41
2022-11-16T11:42:34.306Z,42
2022-11-16T11:43:36.603Z,42
2022-11-16T11:44:38.236Z,42
2022-11-16T11:45:41.107Z,44
2022-11-16T11:47:18.587Z,45
2022-11-16T11:48:00.311Z,45
2022-11-16T11:48:46.185Z,46
2022-11-16T11:49:47.436Z,46
2022-11-16T11:50:50.074Z,46
2022-11-16T11:51:51.741Z,47
2022-11-16T11:52:53.335Z,48
2022-11-16T11:53:55.297Z,47
2022-11-16T11:54:57.210Z,47
2022-11-16T11:55:58.368Z,47
2022-11-16T11:57:00.402Z,47
2022-11-16T11:58:02.376Z,48
2022-11-16T11:59:04.432Z,48
2022-11-16T12:00:06.517Z,49
2022-11-16T12:01:08.315Z,50
2022-11-16T12:02:10.697Z,50
2022-11-16T12:03:12.554Z,51
2022-11-16T12:04:15.096Z,50
2022-11-16T12:05:16.333Z,50
2022-11-16T12:06:18.295Z,50
2022-11-16T12:07:20.410Z,48
2022-11-16T12:08:22.297Z,48
2022-11-16T12:09:24.334Z,47
2022-11-16T12:10:26.219Z,47
2022-11-16T12:11:27.177Z,48
2022-11-16T12:12:28.404Z,48
2022-11-16T12:13:30.203Z,50
2022-11-16T12:14:31.495Z,50
2022-11-16T12:15:33.300Z,50
2022-11-16T12:16:35.797Z,50
2022-11-16T12:17:37.397Z,50
2022-11-16T12:18:39.360Z,51
2022-11-16T12:19:41.322Z,53
2022-11-16T12:20:44.436Z,56
2022-11-16T12:21:47.638Z,54
2022-11-16T12:22:49.221Z,52
2022-11-16T12:23:50.436Z,52
2022-11-16T12:24:52.977Z,52
2022-11-16T12:25:54.840Z,51
2022-11-16T12:26:56.253Z,51
2022-11-16T12:27:58.454Z,51
2022-11-16T12:29:00.966Z,51
2022-11-16T12:30:03.298Z,50
2022-11-16T12:31:05.924Z,49
2022-11-16T12:32:07.271Z,50
2022-11-16T12:33:09.335Z,49
2022-11-16T12:34:11.516Z,49
2022-11-16T12:35:13.274Z,48
2022-11-16T12:36:15.341Z,48
2022-11-16T12:37:17.256Z,48
2022-11-16T12:38:21.853Z,47
2022-11-16T12:39:19.498Z,49
2022-11-16T12:40:21.769Z,48
2022-11-16T12:41:23.362Z,49
2022-11-16T12:42:25.283Z,47
2022-11-16T12:43:27.287Z,47
2022-11-16T12:44:30.022Z,47
2022-11-16T12:45:32.870Z,47
2022-11-16T12:46:34.396Z,47
2022-11-16T12:47:36.414Z,46
2022-11-16T12:48:38.282Z,45
2022-11-16T12:49:40.317Z,45
2022-11-16T12:50:42.335Z,45
2022-11-16T12:51:44.415Z,46
2022-11-16T12:52:46.955Z,44
2022-11-16T12:53:48.323Z,45
2022-11-16T12:55:18.891Z,44
2022-11-16T12:55:52.376Z,45
2022-11-16T12:56:54.295Z,46
2022-11-16T12:57:56.955Z,47
2022-11-16T12:58:58.342Z,47
2022-11-16T13:00:00.955Z,47
2022-11-16T13:01:02.263Z,47
2022-11-16T13:02:03.289Z,48
2022-11-16T13:03:04.681Z,49
2022-11-16T13:04:06.572Z,50
2022-11-16T13:05:08.803Z,50
2022-11-16T13:06:11.279Z,51
2022-11-16T13:07:13.436Z,50
2022-11-16T13:08:16.658Z,50
2022-11-16T13:09:18.341Z,49
2022-11-16T13:10:20.416Z,49
2022-11-16T13:11:22.731Z,49
2022-11-16T13:12:24.736Z,50
2022-11-16T13:13:41.890Z,50
2022-11-16T13:14:28.407Z,49
2022-11-16T13:15:31.105Z,50
2022-11-16T13:16:32.696Z,50
2022-11-16T13:17:35.155Z,49
2022-11-16T13:18:36.476Z,52
2022-11-16T13:19:38.477Z,57
2022-11-16T13:20:40.315Z,60
2022-11-16T13:21:42.296Z,64
2022-11-16T13:22:44.355Z,68
2022-11-16T13:23:47.037Z,70
2022-11-16T13:24:48.255Z,67
2022-11-16T13:25:49.176Z,64
2022-11-16T13:26:50.363Z,62
2022-11-16T13:27:52.324Z,60
2022-11-16T13:28:54.265Z,60
2022-11-16T13:29:56.343Z,58
2022-11-16T13:30:58.365Z,58
2022-11-16T13:32:00.775Z,53
2022-11-16T13:33:02.891Z,48
2022-11-16T13:34:04.293Z,47
2022-11-16T13:35:06.464Z,48
2022-11-16T13:36:08.335Z,47
2022-11-16T13:37:10.309Z,50
2022-11-16T13:38:12.696Z,50
2022-11-16T13:39:18.847Z,50
2022-11-16T13:40:15.293Z,50
2022-11-16T13:41:16.230Z,51
2022-11-16T13:42:17.547Z,50
2022-11-16T13:43:19.338Z,47
2022-11-16T13:44:21.384Z,46
2022-11-16T13:45:23.973Z,45
2022-11-16T13:46:53.925Z,46
2022-11-16T13:47:27.333Z,46
2022-11-16T13:48:29.743Z,44
2022-11-16T13:49:31.446Z,41
2022-11-16T13:50:37.396Z,41
2022-11-16T13:51:34.225Z,40
2022-11-16T13:52:55.506Z,40
2022-11-16T13:54:42.946Z,38
2022-11-16T13:54:44.962Z,39
2022-11-16T13:55:40.318Z,39
2022-11-16T13:56:42.605Z,38
2022-11-16T13:57:44.433Z,39
2022-11-16T13:58:46.764Z,38
2022-11-16T13:59:48.363Z,38
2022-11-16T14:00:50.611Z,38
2022-11-16T14:01:52.747Z,37
2022-11-16T14:02:58.399Z,36
2022-11-16T14:03:56.624Z,36
2022-11-16T14:04:58.319Z,36
2022-11-16T14:06:00.506Z,35
2022-11-16T14:07:02.564Z,36
2022-11-16T14:08:04.691Z,36
2022-11-16T14:09:06.514Z,35
2022-11-16T14:10:09.516Z,34
2022-11-16T14:11:11.866Z,34
2022-11-16T14:12:13.434Z,39
2022-11-16T14:13:15.425Z,48
2022-11-16T14:14:17.312Z,51
2022-11-16T14:15:19.260Z,50
2022-11-16T14:16:21.502Z,47
2022-11-16T14:17:23.328Z,47
2022-11-16T14:18:25.313Z,45
2022-11-16T14:19:27.303Z,44
2022-11-16T14:20:29.346Z,42
2022-11-16T14:21:31.331Z,41
2022-11-16T14:22:32.316Z,39
2022-11-16T14:23:34.477Z,38
2022-11-16T14:24:36.526Z,40
2022-11-16T14:25:39.494Z,39
2022-11-16T14:26:41.361Z,39
2022-11-16T14:27:43.231Z,39
2022-11-16T14:28:44.237Z,39
2022-11-16T14:29:45.313Z,44
2022-11-16T14:30:46.332Z,44
2022-11-16T14:31:48.451Z,41
2022-11-16T14:32:50.252Z,42
2022-11-16T14:33:51.262Z,42
2022-11-16T14:34:52.751Z,42
2022-11-16T14:35:55.991Z,42
2022-11-16T14:36:58.306Z,39
2022-11-16T14:37:59.251Z,38
2022-11-16T14:39:00.670Z,38
2022-11-16T14:40:02.339Z,38
2022-11-16T14:41:04.368Z,37
2022-11-16T14:42:06.331Z,37
2022-11-16T14:43:22.746Z,36
2022-11-16T14:44:09.522Z,35
2022-11-16T14:45:11.452Z,35
2022-11-16T14:46:13.413Z,36
2022-11-16T14:47:15.568Z,35
2022-11-16T14:48:17.389Z,34